createdAt,value
2023-05-03T00:01:55.606Z,100794.25
2023-05-03T00:04:27.276Z,100795.86
2023-05-03T00:06:59.393Z,100796.34
2023-05-03T00:09:31.477Z,100801.56
2023-05-03T00:12:06.181Z,100797.13
2023-05-03T00:14:37.839Z,100803.80
2023-05-03T00:17:09.977Z,100803.80
2023-05-03T00:19:42.868Z,100797.33
2023-05-03T00:22:14.653Z,100798.44
2023-05-03T00:24:46.470Z,100794.34
2023-05-03T00:27:19.410Z,100795.43
2023-05-03T00:29:52.681Z,100794.41
2023-05-03T00:32:24.271Z,100797.38
2023-05-03T00:34:56.833Z,100789.69
2023-05-03T00:37:30.034Z,100789.75
2023-05-03T00:40:02.251Z,100786.45
2023-05-03T00:42:36.987Z,100782.27
2023-05-03T00:45:09.529Z,100786.08
2023-05-03T00:47:41.306Z,100783.88
2023-05-03T00:50:13.005Z,100782.85
2023-05-03T00:52:44.771Z,100774.31
2023-05-03T00:55:16.552Z,100783.34
2023-05-03T00:57:48.170Z,100781.77
2023-05-03T01:00:20.553Z,100782.41
2023-05-03T01:02:52.948Z,100784.16
2023-05-03T01:05:24.656Z,100780.06
2023-05-03T01:08:16.339Z,100781.05
2023-05-03T01:10:50.817Z,100775.38
2023-05-03T01:13:37.678Z,100778.75
2023-05-03T01:16:21.509Z,100768.02
2023-05-03T01:18:53.424Z,100770.02
2023-05-03T01:21:26.303Z,100769.14
2023-05-03T01:24:19.586Z,100760.75
2023-05-03T01:26:51.496Z,100762.40
2023-05-03T01:29:23.157Z,100765.77
2023-05-03T01:31:58.632Z,100762.83
2023-05-03T01:34:36.553Z,100762.73
2023-05-03T01:37:08.226Z,100768.33
2023-05-03T01:39:49.052Z,100756.20
2023-05-03T01:42:20.702Z,100752.88
2023-05-03T01:44:52.563Z,100757.84
2023-05-03T01:47:24.209Z,100751.84
2023-05-03T01:49:56.355Z,100749.39
2023-05-03T01:52:28.058Z,100748.45
2023-05-03T01:55:00.175Z,100752.69
2023-05-03T01:57:31.784Z,100752.97
2023-05-03T02:00:04.575Z,100749.76
2023-05-03T02:02:38.659Z,100757.34
2023-05-03T02:05:11.644Z,100747.80
2023-05-03T02:07:43.628Z,100757.00
2023-05-03T02:10:16.425Z,100759.20
2023-05-03T02:12:48.125Z,100751.83
2023-05-03T02:15:21.548Z,100763.37
2023-05-03T02:17:54.376Z,100761.86
2023-05-03T02:20:27.388Z,100759.27
2023-05-03T02:22:59.653Z,100766.76
2023-05-03T02:25:31.993Z,100761.44
2023-05-03T02:28:03.889Z,100776.06
2023-05-03T02:30:36.515Z,100779.94
2023-05-03T02:33:08.406Z,100778.86
2023-05-03T02:35:40.727Z,100778.27
2023-05-03T02:38:12.307Z,100780.78
2023-05-03T02:40:44.088Z,100787.88
2023-05-03T02:43:15.950Z,100783.08
2023-05-03T02:45:47.720Z,100779.90
2023-05-03T02:48:20.621Z,100775.11
2023-05-03T02:50:54.606Z,100775.87
2023-05-03T02:53:26.937Z,100773.92
2023-05-03T02:55:59.105Z,100770.84
2023-05-03T02:58:31.136Z,100769.13
2023-05-03T03:01:03.332Z,100765.39
2023-05-03T03:03:35.523Z,100760.81
2023-05-03T03:06:07.452Z,100768.12
2023-05-03T03:08:39.535Z,100765.88
2023-05-03T03:11:11.616Z,100767.49
2023-05-03T03:13:43.574Z,100764.91
2023-05-03T03:16:15.604Z,100768.47
2023-05-03T03:18:47.478Z,100762.53
2023-05-03T03:21:19.452Z,100763.02
2023-05-03T03:23:51.540Z,100764.38
2023-05-03T03:26:23.265Z,100762.73
2023-05-03T03:28:55.055Z,100768.58
2023-05-03T03:31:27.360Z,100765.84
2023-05-03T03:33:59.159Z,100770.64
2023-05-03T03:36:31.766Z,100770.02
2023-05-03T03:39:04.146Z,100776.69
2023-05-03T03:41:37.048Z,100776.02
2023-05-03T03:44:09.310Z,100764.98
2023-05-03T03:46:42.006Z,100771.17
2023-05-03T03:49:13.906Z,100765.92
2023-05-03T03:51:45.967Z,100771.76
2023-05-03T03:54:18.217Z,100768.89
2023-05-03T03:56:51.173Z,100776.76
2023-05-03T03:59:23.090Z,100773.75
2023-05-03T04:01:55.231Z,100776.20
2023-05-03T04:04:28.353Z,100775.22
2023-05-03T04:07:00.513Z,100782.17
2023-05-03T04:09:33.596Z,100776.20
2023-05-03T04:12:05.883Z,100778.50
2023-05-03T04:14:39.501Z,100779.30
2023-05-03T04:17:12.786Z,100777.17
2023-05-03T04:19:44.892Z,100782.03
2023-05-03T04:22:17.099Z,100781.84
2023-05-03T04:24:48.982Z,100783.34
2023-05-03T04:27:20.647Z,100786.95
2023-05-03T04:30:00.267Z,100782.50
2023-05-03T04:32:34.100Z,100786.51
2023-05-03T04:35:10.876Z,100791.59
2023-05-03T04:37:45.694Z,100782.53
2023-05-03T04:40:19.827Z,100786.63
2023-05-03T04:42:53.319Z,100789.82
2023-05-03T04:45:26.955Z,100793.62
2023-05-03T04:47:58.952Z,100793.08
2023-05-03T04:50:30.702Z,100795.77
2023-05-03T04:53:02.909Z,100795.60
2023-05-03T04:55:37.043Z,100799.23
2023-05-03T04:58:08.975Z,100805.17
2023-05-03T05:00:43.239Z,100802.17
2023-05-03T05:03:17.045Z,100802.80
2023-05-03T05:05:48.813Z,100808.05
2023-05-03T05:08:21.826Z,100808.23
2023-05-03T05:10:55.069Z,100809.63
2023-05-03T05:13:28.291Z,100803.64
2023-05-03T05:16:01.024Z,100802.73
2023-05-03T05:18:33.087Z,100808.71
2023-05-03T05:21:06.853Z,100811.88
2023-05-03T05:23:39.113Z,100795.84
2023-05-03T05:26:11.044Z,100799.34
2023-05-03T05:28:43.272Z,100792.72
2023-05-03T05:31:15.709Z,100802.56
2023-05-03T05:33:47.288Z,100794.06
2023-05-03T05:36:19.031Z,100792.78
2023-05-03T05:39:00.004Z,100795.28
2023-05-03T05:41:32.537Z,100789.42
2023-05-03T05:44:04.640Z,100795.80
2023-05-03T05:46:36.950Z,100783.30
2023-05-03T05:49:08.809Z,100787.30
2023-05-03T05:51:41.492Z,100780.11
2023-05-03T05:54:14.403Z,100788.71
2023-05-03T05:56:46.746Z,100781.52
2023-05-03T05:59:18.672Z,100768.98
2023-05-03T06:01:50.503Z,100776.89
2023-05-03T06:04:23.809Z,100773.47
2023-05-03T06:06:55.829Z,100779.86
2023-05-03T06:09:27.509Z,100772.30
2023-05-03T06:12:01.336Z,100765.09
2023-05-03T06:14:34.999Z,100773.34
2023-05-03T06:17:07.375Z,100766.44
2023-05-03T06:19:40.373Z,100753.70
2023-05-03T06:22:13.151Z,100768.48
2023-05-03T06:24:45.298Z,100758.31
2023-05-03T06:27:17.568Z,100752.61
2023-05-03T06:29:50.258Z,100746.70
2023-05-03T06:32:24.869Z,100759.73
2023-05-03T06:34:58.432Z,100756.23
2023-05-03T06:37:30.429Z,100752.11
2023-05-03T06:40:02.373Z,100759.49
2023-05-03T06:42:34.424Z,100752.05
2023-05-03T06:45:13.775Z,100743.52
2023-05-03T06:47:46.166Z,100738.41
2023-05-03T06:50:19.470Z,100746.04
2023-05-03T06:52:52.131Z,100751.11
2023-05-03T06:55:23.641Z,100751.20
2023-05-03T06:57:55.378Z,100750.38
2023-05-03T07:00:27.543Z,100751.73
2023-05-03T07:02:59.488Z,100745.31
2023-05-03T07:05:31.674Z,100740.14
2023-05-03T07:08:03.813Z,100747.28
2023-05-03T07:10:36.687Z,100745.64
2023-05-03T07:13:08.557Z,100757.06
2023-05-03T07:15:40.858Z,100737.42
2023-05-03T07:18:12.963Z,100738.76
2023-05-03T07:20:44.816Z,100742.56
2023-05-03T07:23:16.885Z,100737.17
2023-05-03T07:25:48.819Z,100745.26
2023-05-03T07:28:20.725Z,100738.91
2023-05-03T07:30:52.804Z,100740.12
2023-05-03T07:33:24.763Z,100730.81
2023-05-03T07:35:56.730Z,100730.20
2023-05-03T07:38:28.432Z,100730.81
2023-05-03T07:41:00.215Z,100732.64
2023-05-03T07:43:32.261Z,100743.34
2023-05-03T07:46:03.959Z,100730.36
2023-05-03T07:48:36.225Z,100721.94
2023-05-03T07:51:08.057Z,100709.59
2023-05-03T07:53:40.462Z,100711.70
2023-05-03T07:56:12.533Z,100721.63
2023-05-03T07:58:46.692Z,100722.94
2023-05-03T08:01:17.865Z,100710.41
2023-05-03T08:03:52.530Z,100712.35
2023-05-03T08:06:24.988Z,100730.53
2023-05-03T08:08:56.886Z,100716.85
2023-05-03T08:11:29.306Z,100712.75
2023-05-03T08:14:01.172Z,100705.64
2023-05-03T08:16:33.113Z,100701.45
2023-05-03T08:19:05.140Z,100717.75
2023-05-03T08:21:38.297Z,100712.66
2023-05-03T08:24:13.673Z,100722.33
2023-05-03T08:26:46.410Z,100731.64
2023-05-03T08:29:18.198Z,100733.97
2023-05-03T08:31:50.094Z,100715.48
2023-05-03T08:34:22.558Z,100719.42
2023-05-03T08:36:54.688Z,100712.38
2023-05-03T08:39:31.346Z,100720.28
2023-05-03T08:42:04.821Z,100700.60
2023-05-03T08:44:42.198Z,100708.08
2023-05-03T08:47:16.491Z,100707.58
2023-05-03T08:49:48.172Z,100703.27
2023-05-03T08:52:21.275Z,100703.06
2023-05-03T08:54:53.028Z,100693.73
2023-05-03T08:57:26.009Z,100693.69
2023-05-03T08:59:59.362Z,100706.71
2023-05-03T09:02:33.290Z,100693.78
2023-05-03T09:05:08.212Z,100694.30
2023-05-03T09:07:40.461Z,100704.47
2023-05-03T09:10:24.798Z,100697.98
2023-05-03T09:13:01.626Z,100697.05
2023-05-03T09:15:33.728Z,100709.12
2023-05-03T09:18:18.064Z,100702.08
2023-05-03T09:20:52.788Z,100693.95
2023-05-03T09:23:31.403Z,100690.52
2023-05-03T09:26:03.414Z,100703.74
2023-05-03T09:28:44.348Z,100700.74
2023-05-03T09:31:16.317Z,100699.27
2023-05-03T09:33:47.909Z,100711.85
2023-05-03T09:36:19.786Z,100704.48
2023-05-03T09:38:52.594Z,100686.45
2023-05-03T09:41:31.136Z,100698.70
2023-05-03T09:44:03.204Z,100709.05
2023-05-03T09:46:35.324Z,100706.62
2023-05-03T09:49:08.006Z,100702.36
2023-05-03T09:51:41.763Z,100704.19
2023-05-03T09:54:13.528Z,100707.20
2023-05-03T09:56:45.239Z,100720.64
2023-05-03T09:59:17.271Z,100703.05
2023-05-03T10:01:49.238Z,100703.34
2023-05-03T10:04:22.379Z,100703.96
2023-05-03T10:06:54.917Z,100707.67
2023-05-03T10:09:39.977Z,100697.75
2023-05-03T10:12:16.988Z,100704.87
2023-05-03T10:14:49.561Z,100693.02
2023-05-03T10:17:32.321Z,100699.09
2023-05-03T10:20:00.564Z,100698.17
2023-05-03T10:22:32.530Z,100696.52
2023-05-03T10:25:08.014Z,100701.66
2023-05-03T10:27:48.276Z,100709.86
2023-05-03T10:30:36.117Z,100706.20
2023-05-03T10:33:17.467Z,100703.03
2023-05-03T10:35:53.235Z,100699.50
2023-05-03T10:38:26.211Z,100687.53
2023-05-03T10:40:59.240Z,100693.95
2023-05-03T10:43:34.139Z,100695.36
2023-05-03T10:46:07.801Z,100704.44
2023-05-03T10:48:39.556Z,100701.52
2023-05-03T10:51:34.032Z,100697.16
2023-05-03T10:54:06.014Z,100708.67
2023-05-03T10:56:48.666Z,100695.66
2023-05-03T10:59:21.151Z,100696.09
2023-05-03T11:01:53.858Z,100690.61
2023-05-03T11:04:31.048Z,100691.58
2023-05-03T11:07:02.556Z,100696.27
2023-05-03T11:09:35.305Z,100697.49
2023-05-03T11:12:08.717Z,100699.56
2023-05-03T11:14:40.343Z,100690.66
2023-05-03T11:17:12.278Z,100679.27
2023-05-03T11:19:45.378Z,100676.38
2023-05-03T11:22:17.167Z,100676.55
2023-05-03T11:24:50.851Z,100680.63
2023-05-03T11:27:26.563Z,100694.46
2023-05-03T11:29:59.373Z,100679.12
2023-05-03T11:32:31.447Z,100681.48
2023-05-03T11:35:05.561Z,100674.81
2023-05-03T11:37:37.597Z,100681.39
2023-05-03T11:40:13.681Z,100673.28
2023-05-03T11:42:59.825Z,100673.59
2023-05-03T11:45:33.360Z,100683.58
2023-05-03T11:48:05.186Z,100688.32
2023-05-03T11:50:55.309Z,100683.47
2023-05-03T11:53:28.135Z,100679.44
2023-05-03T11:56:00.032Z,100675.00
2023-05-03T11:58:32.139Z,100673.17
2023-05-03T12:01:05.874Z,100669.50
2023-05-03T12:03:38.338Z,100675.00
2023-05-03T12:06:11.954Z,100669.84
2023-05-03T12:08:45.232Z,100658.43
2023-05-03T12:11:18.270Z,100671.66
2023-05-03T12:13:58.987Z,100656.20
2023-05-03T12:16:34.262Z,100646.14
2023-05-03T12:19:08.810Z,100657.90
2023-05-03T12:24:24.798Z,100655.36
2023-05-03T12:26:57.886Z,100650.41
2023-05-03T12:29:34.682Z,100638.39
2023-05-03T12:32:06.080Z,100647.14
2023-05-03T12:34:40.880Z,100642.66
2023-05-03T12:37:12.220Z,100635.02
2023-05-03T12:39:46.118Z,100632.08
2023-05-03T12:42:19.496Z,100629.55
2023-05-03T12:44:53.443Z,100629.75
2023-05-03T12:47:28.837Z,100626.95
2023-05-03T12:49:59.985Z,100628.95
2023-05-03T12:52:38.023Z,100619.53
2023-05-03T12:55:11.330Z,100609.57
2023-05-03T12:57:45.835Z,100625.44
2023-05-03T13:00:24.925Z,100612.80
2023-05-03T13:10:34.565Z,100612.33
2023-05-03T13:13:06.890Z,100610.59
2023-05-03T13:15:39.571Z,100607.23
2023-05-03T13:18:13.954Z,100604.88
2023-05-03T13:20:45.986Z,100599.09
2023-05-03T13:23:17.819Z,100600.28
2023-05-03T13:25:50.927Z,100593.34
2023-05-03T13:28:24.514Z,100599.98
2023-05-03T13:30:57.505Z,100594.05
2023-05-03T13:33:29.465Z,100595.16
2023-05-03T13:36:01.180Z,100601.81
2023-05-03T13:38:33.953Z,100599.67
2023-05-03T13:41:10.436Z,100595.91
2023-05-03T13:43:42.595Z,100590.27
2023-05-03T13:46:14.602Z,100596.06
2023-05-03T13:48:46.589Z,100596.23
2023-05-03T13:51:18.440Z,100592.98
2023-05-03T13:53:50.164Z,100594.70
2023-05-03T13:56:21.875Z,100601.52
2023-05-03T13:58:55.579Z,100590.12
2023-05-03T14:01:28.677Z,100594.06
2023-05-03T14:04:00.797Z,100594.52
2023-05-03T14:06:33.609Z,100591.83
2023-05-03T14:09:06.526Z,100604.55
2023-05-03T14:11:39.596Z,100602.20
2023-05-03T14:14:11.598Z,100593.66
2023-05-03T14:16:43.521Z,100604.56
2023-05-03T14:19:17.089Z,100599.21
2023-05-03T14:21:50.780Z,100595.49
2023-05-03T14:24:22.421Z,100594.19
2023-05-03T14:26:54.356Z,100599.44
2023-05-03T14:29:26.263Z,100598.14
2023-05-03T14:31:58.721Z,100600.54
2023-05-03T14:34:30.459Z,100600.75
2023-05-03T14:37:04.427Z,100600.63
2023-05-03T14:39:36.649Z,100604.16
2023-05-03T14:42:08.502Z,100607.34
2023-05-03T14:44:40.203Z,100608.69
2023-05-03T14:47:12.374Z,100606.79
2023-05-03T14:49:44.035Z,100609.63
2023-05-03T14:52:16.218Z,100607.27
2023-05-03T14:54:48.051Z,100604.61
2023-05-03T14:57:20.193Z,100608.76
2023-05-03T14:59:51.827Z,100606.61
2023-05-03T15:02:24.288Z,100610.20
2023-05-03T15:04:56.216Z,100611.33
2023-05-03T15:07:28.256Z,100613.89
2023-05-03T15:12:44.880Z,100612.39
2023-05-03T15:15:16.899Z,100615.47
2023-05-03T15:17:48.851Z,100608.06
2023-05-03T15:20:20.585Z,100617.64
2023-05-03T15:22:52.369Z,100620.09
2023-05-03T15:25:24.319Z,100617.84
2023-05-03T15:27:56.808Z,100623.59
2023-05-03T15:33:12.146Z,100620.66
2023-05-03T15:35:44.394Z,100624.30
2023-05-03T15:38:17.924Z,100622.59
2023-05-03T15:40:49.600Z,100615.22
2023-05-03T15:43:21.610Z,100613.72
2023-05-03T15:45:53.749Z,100618.95
2023-05-03T15:48:25.845Z,100616.89
2023-05-03T15:50:57.738Z,100617.82
2023-05-03T15:53:29.915Z,100615.70
2023-05-03T15:56:02.656Z,100618.00
2023-05-03T15:58:34.585Z,100620.86
2023-05-03T16:01:06.641Z,100621.78
2023-05-03T16:03:38.507Z,100618.89
2023-05-03T16:06:10.864Z,100621.00
2023-05-03T16:08:42.926Z,100617.45
2023-05-03T16:11:15.347Z,100620.51
2023-05-03T16:13:47.160Z,100615.27
2023-05-03T16:16:19.364Z,100619.38
2023-05-03T16:18:51.294Z,100616.20
2023-05-03T16:21:26.085Z,100617.31
2023-05-03T16:24:01.962Z,100617.28
2023-05-03T16:26:34.644Z,100624.11
2023-05-03T16:29:06.372Z,100628.73
2023-05-03T16:31:39.476Z,100628.89
2023-05-03T16:34:11.910Z,100623.80
2023-05-03T16:36:44.258Z,100635.31
2023-05-03T16:39:16.859Z,100638.89
2023-05-03T16:41:49.051Z,100644.14
2023-05-03T16:44:21.384Z,100645.23
2023-05-03T16:46:53.294Z,100656.55
2023-05-03T16:49:25.422Z,100652.95
2023-05-03T16:51:57.889Z,100658.22
2023-05-03T16:54:31.171Z,100666.95
2023-05-03T16:57:02.738Z,100661.53
2023-05-03T16:59:34.832Z,100668.75
2023-05-03T17:02:06.654Z,100669.77
2023-05-03T17:04:40.156Z,100669.20
2023-05-03T17:07:12.436Z,100678.13
2023-05-03T17:09:44.062Z,100673.30
2023-05-03T17:12:16.208Z,100684.72
2023-05-03T17:14:48.139Z,100678.95
2023-05-03T17:17:20.131Z,100685.22
2023-05-03T17:19:52.660Z,100686.69
2023-05-03T17:22:24.790Z,100682.43
2023-05-03T17:24:58.462Z,100693.18
2023-05-03T17:27:30.575Z,100702.00
2023-05-03T17:30:03.430Z,100703.11
2023-05-03T17:32:36.783Z,100706.31
2023-05-03T17:35:11.341Z,100713.98
2023-05-03T17:37:43.914Z,100712.24
2023-05-03T17:40:17.214Z,100719.73
2023-05-03T17:42:49.664Z,100721.91
2023-05-03T17:45:21.732Z,100725.09
2023-05-03T17:47:53.436Z,100737.15
2023-05-03T17:50:25.446Z,100739.61
2023-05-03T17:52:57.711Z,100737.94
2023-05-03T17:55:29.347Z,100734.38
2023-05-03T17:58:02.213Z,100737.46
2023-05-03T18:00:34.676Z,100743.25
2023-05-03T18:03:08.306Z,100748.22
2023-05-03T18:05:40.647Z,100750.81
2023-05-03T18:08:15.412Z,100754.73
2023-05-03T18:10:47.653Z,100762.93
2023-05-03T18:13:19.653Z,100767.20
2023-05-03T18:15:51.888Z,100762.71
2023-05-03T18:18:24.060Z,100764.57
2023-05-03T18:21:12.386Z,100771.05
2023-05-03T18:23:44.570Z,100775.97
2023-05-03T18:26:16.926Z,100770.22
2023-05-03T18:28:48.690Z,100777.39
2023-05-03T18:31:21.474Z,100783.84
2023-05-03T18:33:53.722Z,100778.65
2023-05-03T18:36:25.577Z,100781.20
2023-05-03T18:38:57.698Z,100785.09
2023-05-03T18:41:29.544Z,100787.81
2023-05-03T18:44:01.930Z,100793.80
2023-05-03T18:46:34.612Z,100797.38
2023-05-03T18:49:07.619Z,100798.36
2023-05-03T18:51:41.060Z,100804.69
2023-05-03T18:54:13.567Z,100813.72
2023-05-03T18:56:45.784Z,100816.44
2023-05-03T18:59:18.921Z,100815.54
2023-05-03T19:01:52.033Z,100815.33
2023-05-03T19:04:24.647Z,100813.90
2023-05-03T19:06:57.658Z,100827.22
2023-05-03T19:09:29.839Z,100820.66
2023-05-03T19:12:02.626Z,100835.81
2023-05-03T19:14:34.916Z,100827.69
2023-05-03T19:17:06.866Z,100839.48
2023-05-03T19:19:38.944Z,100838.91
2023-05-03T19:22:10.852Z,100833.75
2023-05-03T19:24:43.997Z,100844.17
2023-05-03T19:27:17.115Z,100842.54
2023-05-03T19:29:55.644Z,100849.00
2023-05-03T19:32:27.332Z,100851.02
2023-05-03T19:35:00.157Z,100847.06
2023-05-03T19:37:32.110Z,100849.95
2023-05-03T19:40:04.537Z,100851.63
2023-05-03T19:42:36.752Z,100850.95
2023-05-03T19:45:10.311Z,100853.68
2023-05-03T19:47:42.435Z,100860.14
2023-05-03T19:50:14.413Z,100857.17
2023-05-03T19:52:47.048Z,100862.91
2023-05-03T19:55:18.837Z,100854.44
2023-05-03T19:57:50.776Z,100874.41
2023-05-03T20:00:26.520Z,100869.54
2023-05-03T20:02:58.386Z,100865.54
2023-05-03T20:05:30.118Z,100871.31
2023-05-03T20:08:01.983Z,100872.59
2023-05-03T20:10:35.808Z,100870.69
2023-05-03T20:13:07.921Z,100873.22
2023-05-03T20:15:40.005Z,100876.25
2023-05-03T20:18:11.939Z,100882.02
2023-05-03T20:20:43.663Z,100877.86
2023-05-03T20:23:16.516Z,100869.95
2023-05-03T20:25:48.291Z,100874.32
2023-05-03T20:28:20.617Z,100868.42
2023-05-03T20:30:52.343Z,100869.44
2023-05-03T20:33:24.424Z,100865.98
2023-05-03T20:35:56.303Z,100870.75
2023-05-03T20:38:28.211Z,100877.01
2023-05-03T20:41:01.476Z,100884.63
2023-05-03T20:43:34.242Z,100885.30
2023-05-03T20:46:05.975Z,100887.98
2023-05-03T20:48:38.455Z,100893.06
2023-05-03T20:51:10.355Z,100894.72
2023-05-03T20:53:41.972Z,100899.11
2023-05-03T20:56:13.647Z,100894.80
2023-05-03T20:58:45.838Z,100897.83
2023-05-03T21:01:18.434Z,100888.55
2023-05-03T21:03:50.254Z,100892.45
2023-05-03T21:06:22.111Z,100890.00
2023-05-03T21:08:53.907Z,100885.84
2023-05-03T21:11:25.562Z,100894.33
2023-05-03T21:13:59.009Z,100898.56
2023-05-03T21:16:31.356Z,100901.80
2023-05-03T21:19:03.998Z,100897.14
2023-05-03T21:21:35.878Z,100899.67
2023-05-03T21:24:08.182Z,100899.81
2023-05-03T21:26:40.159Z,100899.22
2023-05-03T21:29:12.547Z,100906.33
2023-05-03T21:31:44.398Z,100904.91
2023-05-03T21:34:16.195Z,100907.28
2023-05-03T21:36:49.055Z,100911.66
2023-05-03T21:39:21.772Z,100912.93
2023-05-03T21:41:53.421Z,100913.88
2023-05-03T21:44:25.316Z,100908.84
2023-05-03T21:46:56.991Z,100912.87
2023-05-03T21:49:29.114Z,100907.55
2023-05-03T21:52:00.806Z,100908.91
2023-05-03T21:54:32.732Z,100909.55
2023-05-03T21:57:04.637Z,100907.34
2023-05-03T21:59:36.241Z,100906.11
2023-05-03T22:02:08.149Z,100902.16
2023-05-03T22:04:40.274Z,100907.09
2023-05-03T22:07:13.801Z,100900.94
2023-05-03T22:09:48.743Z,100903.42
2023-05-03T22:12:24.127Z,100900.34
2023-05-03T22:14:54.307Z,100900.77
2023-05-03T22:17:26.329Z,100900.17
2023-05-03T22:19:58.698Z,100902.30
2023-05-03T22:22:30.393Z,100899.85
2023-05-03T22:25:02.239Z,100896.56
2023-05-03T22:27:34.072Z,100895.97
2023-05-03T22:30:06.843Z,100891.52
2023-05-03T22:32:38.970Z,100889.07
2023-05-03T22:35:10.918Z,100889.34
2023-05-03T22:37:42.895Z,100897.45
2023-05-03T22:40:16.314Z,100895.00
2023-05-03T22:42:48.313Z,100897.27
2023-05-03T22:45:20.724Z,100896.57
2023-05-03T22:47:52.622Z,100897.05
2023-05-03T22:50:24.488Z,100898.06
2023-05-03T22:52:56.036Z,100900.69
2023-05-03T22:55:28.100Z,100896.03
2023-05-03T22:57:59.814Z,100900.88
2023-05-03T23:00:32.433Z,100895.84
2023-05-03T23:03:04.144Z,100894.87
2023-05-03T23:05:36.255Z,100900.12
2023-05-03T23:08:08.271Z,100895.81
2023-05-03T23:10:39.995Z,100893.00
2023-05-03T23:13:11.881Z,100888.66
2023-05-03T23:15:44.014Z,100886.95
2023-05-03T23:18:15.883Z,100880.92
2023-05-03T23:20:49.058Z,100875.88
2023-05-03T23:23:21.400Z,100880.59
2023-05-03T23:25:53.222Z,100870.97
2023-05-03T23:28:25.822Z,100865.44
2023-05-03T23:30:58.150Z,100862.25
2023-05-03T23:33:41.771Z,100868.48
2023-05-03T23:36:13.583Z,100869.73
2023-05-03T23:38:45.208Z,100868.50
2023-05-03T23:41:17.298Z,100864.06
2023-05-03T23:43:49.017Z,100867.14
2023-05-03T23:46:20.831Z,100867.27
2023-05-03T23:48:52.725Z,100865.07
2023-05-03T23:51:24.900Z,100866.83
2023-05-03T23:53:56.850Z,100867.45
2023-05-03T23:56:28.576Z,100865.73
2023-05-03T23:59:01.839Z,100865.52
